Time;durP1;ratioP1;P1;durP2;ratioP2;P2;SDS_P1;SDS_P2;PMS_P1;PMS_P2;Temp;Humidity;BMP_temperature;BMP_pressure;BME280_temperature;BME280_humidity;BME280_pressure;Samples;Min_cycle;Max_cycle;Signal;HPM_P1;HPM_P2
2021/12/09 00:01:32;;;;;;;15.40;3.92;;;1.00;90.50;;;;;;4879175;29;20046;-81
2021/12/09 00:04:02;;;;;;;11.00;3.97;;;1.10;90.70;;;;;;4886350;29;20051;-81
2021/12/09 00:06:30;;;;;;;10.95;4.13;;;1.20;90.70;;;;;;4875156;29;20060;-81
2021/12/09 00:09:00;;;;;;;12.63;3.90;;;1.30;90.50;;;;;;4862489;29;20048;-82
2021/12/09 00:11:28;;;;;;;17.83;3.72;;;1.30;90.40;;;;;;4880994;29;20393;-81
2021/12/09 00:13:54;;;;;;;15.10;4.28;;;1.40;90.40;;;;;;4871257;29;20047;-81
2021/12/09 00:16:20;;;;;;;8.98;3.58;;;1.50;90.20;;;;;;4858932;29;20048;-81
2021/12/09 00:18:46;;;;;;;9.25;3.72;;;1.50;90.00;;;;;;4857961;29;20044;-81
2021/12/09 00:21:12;;;;;;;9.77;3.53;;;1.40;89.80;;;;;;4873829;29;20127;-81
2021/12/09 00:23:38;;;;;;;12.77;4.13;;;1.40;89.80;;;;;;4859876;29;20049;-81
2021/12/09 00:26:04;;;;;;;16.05;3.90;;;1.40;89.70;;;;;;4873437;29;20395;-81
2021/12/09 00:28:30;;;;;;;8.85;4.10;;;1.50;89.90;;;;;;4859715;29;20052;-81
2021/12/09 00:30:56;;;;;;;10.43;3.97;;;1.50;89.90;;;;;;4858588;29;20495;-81
2021/12/09 00:33:22;;;;;;;15.68;3.95;;;1.50;89.90;;;;;;4864419;29;20048;-81
2021/12/09 00:35:56;;;;;;;14.95;4.03;;;1.50;89.60;;;;;;4886264;29;20084;-81
2021/12/09 00:38:44;;;;;;;11.70;4.40;;;1.40;89.80;;;;;;4887259;29;20060;-80
2021/12/09 00:41:13;;;;;;;9.85;3.85;;;1.30;89.80;;;;;;4887821;29;20577;-80
2021/12/09 00:43:40;;;;;;;12.18;3.97;;;1.30;89.70;;;;;;4889445;29;20521;-81
2021/12/09 00:46:06;;;;;;;15.68;4.00;;;1.30;90.10;;;;;;4890853;29;20052;-81
2021/12/09 00:48:32;;;;;;;14.65;3.92;;;1.30;90.10;;;;;;4889532;29;20743;-80
2021/12/09 00:50:59;;;;;;;10.75;4.63;;;1.30;90.00;;;;;;4843623;29;20175;-80
2021/12/09 00:53:26;;;;;;;17.70;4.63;;;1.20;89.90;;;;;;4874552;29;20048;-80
2021/12/09 00:55:53;;;;;;;9.90;4.30;;;1.20;89.80;;;;;;4886599;29;20047;-80
2021/12/09 00:58:19;;;;;;;14.50;4.22;;;1.20;89.90;;;;;;4883403;29;20408;-80
2021/12/09 01:00:45;;;;;;;10.35;4.18;;;1.00;89.80;;;;;;4891683;29;20055;-80
2021/12/09 01:03:13;;;;;;;14.80;3.83;;;0.90;89.60;;;;;;4887122;29;20043;-80
2021/12/09 01:05:39;;;;;;;13.63;4.90;;;0.90;89.80;;;;;;4854389;29;20061;-80
2021/12/09 01:08:05;;;;;;;13.15;4.28;;;0.80;90.20;;;;;;4840539;29;20496;-79
2021/12/09 01:10:32;;;;;;;15.73;4.43;;;0.80;90.30;;;;;;4871068;29;20052;-79
2021/12/09 01:12:58;;;;;;;12.85;4.32;;;0.80;90.50;;;;;;4855727;29;20136;-79
2021/12/09 01:15:26;;;;;;;19.83;4.72;;;0.70;90.50;;;;;;4856283;29;20084;-79
2021/12/09 01:17:52;;;;;;;17.55;4.43;;;0.70;90.60;;;;;;4853928;29;20052;-79
2021/12/09 01:20:24;;;;;;;16.55;5.10;;;0.80;90.80;;;;;;4856213;29;20621;-79
2021/12/09 01:22:54;;;;;;;15.00;4.90;;;0.80;91.00;;;;;;4854906;29;20060;-79
2021/12/09 01:25:22;;;;;;;18.50;4.57;;;0.90;90.90;;;;;;4856608;29;20049;-79
2021/12/09 01:27:51;;;;;;;14.60;4.72;;;0.90;91.00;;;;;;4839987;29;20051;-79
2021/12/09 01:30:19;;;;;;;15.07;4.20;;;0.90;91.00;;;;;;4855025;29;20048;-79
2021/12/09 01:32:50;;;;;;;12.98;4.95;;;0.90;91.00;;;;;;4825771;29;20585;-79
2021/12/09 01:35:27;;;;;;;11.52;4.55;;;1.00;90.90;;;;;;4855114;29;20408;-79
2021/12/09 01:38:00;;;;;;;14.32;4.80;;;1.00;90.80;;;;;;4856096;29;20077;-78
2021/12/09 01:40:28;;;;;;;10.48;4.20;;;1.00;90.80;;;;;;4853214;29;20051;-79
2021/12/09 01:42:55;;;;;;;12.52;4.43;;;1.00;90.70;;;;;;4854677;29;20133;-78
2021/12/09 01:45:21;;;;;;;8.25;4.03;;;1.00;90.70;;;;;;4855848;29;20061;-78
2021/12/09 01:47:48;;;;;;;10.82;4.40;;;1.00;90.70;;;;;;4854327;29;20092;-79
2021/12/09 01:50:14;;;;;;;10.30;4.50;;;1.00;90.70;;;;;;4855577;29;20050;-78
2021/12/09 01:52:40;;;;;;;11.48;4.68;;;1.00;90.70;;;;;;4838876;29;20041;-78
2021/12/09 01:55:08;;;;;;;14.27;4.07;;;0.90;90.60;;;;;;4822623;29;20416;-78
2021/12/09 01:57:35;;;;;;;12.48;5.50;;;0.90;90.60;;;;;;4869462;29;20504;-78
2021/12/09 02:00:04;;;;;;;10.55;4.80;;;0.90;90.60;;;;;;4855561;29;20045;-78
2021/12/09 02:02:30;;;;;;;11.75;4.68;;;0.80;90.60;;;;;;4857493;29;20049;-78
2021/12/09 02:04:55;;;;;;;16.20;4.85;;;0.80;90.70;;;;;;4873765;29;20063;-78
2021/12/09 02:07:21;;;;;;;11.52;5.28;;;0.80;90.90;;;;;;4866080;29;20136;-78
2021/12/09 02:09:47;;;;;;;14.57;4.82;;;0.90;91.00;;;;;;4869769;29;20044;-78
2021/12/09 02:12:13;;;;;;;19.33;5.47;;;0.90;91.00;;;;;;4896511;29;20126;-78
2021/12/09 02:14:42;;;;;;;16.52;6.13;;;0.90;91.00;;;;;;4894105;29;20056;-78
2021/12/09 02:17:10;;;;;;;16.45;5.07;;;0.90;91.00;;;;;;4896598;29;20051;-77
2021/12/09 02:19:40;;;;;;;16.30;4.93;;;0.90;91.10;;;;;;4882986;29;20044;-77
2021/12/09 02:22:05;;;;;;;17.42;5.22;;;0.80;91.00;;;;;;4861292;29;20127;-78
2021/12/09 02:24:31;;;;;;;12.60;5.18;;;0.80;91.00;;;;;;4879334;29;20132;-77
2021/12/09 02:26:58;;;;;;;7.90;4.50;;;0.80;91.00;;;;;;4894813;29;20047;-77
2021/12/09 02:29:24;;;;;;;18.25;5.63;;;0.80;91.00;;;;;;4871906;29;20470;-77
2021/12/09 02:31:56;;;;;;;21.25;5.07;;;0.80;91.10;;;;;;4875447;29;20529;-77
2021/12/09 02:34:22;;;;;;;9.27;4.85;;;0.80;91.10;;;;;;4847394;29;20052;-77
2021/12/09 02:36:50;;;;;;;13.07;4.60;;;0.80;91.10;;;;;;4894116;29;20410;-77
2021/12/09 02:39:16;;;;;;;16.63;4.57;;;0.80;91.00;;;;;;4868717;29;20041;-77
2021/12/09 02:41:43;;;;;;;7.43;4.20;;;0.80;91.10;;;;;;4892966;29;20044;-77
2021/12/09 02:44:11;;;;;;;15.70;4.70;;;0.80;91.20;;;;;;4882506;29;20056;-77
2021/12/09 02:46:38;;;;;;;13.43;5.75;;;0.80;91.20;;;;;;4863573;29;20055;-77
2021/12/09 02:49:18;;;;;;;12.05;5.32;;;0.80;91.30;;;;;;4894227;29;20055;-77
2021/12/09 02:51:46;;;;;;;8.85;5.38;;;0.80;91.20;;;;;;4877938;29;20052;-77
2021/12/09 02:54:15;;;;;;;16.67;5.05;;;0.80;91.20;;;;;;4871350;29;20048;-77
2021/12/09 02:56:42;;;;;;;15.85;5.43;;;0.80;91.20;;;;;;4860871;29;20119;-76
2021/12/09 02:59:08;;;;;;;22.63;5.50;;;0.80;91.20;;;;;;4895822;29;20615;-77
2021/12/09 03:01:37;;;;;;;13.32;4.68;;;0.90;91.20;;;;;;4880607;29;20127;-76
2021/12/09 03:04:05;;;;;;;18.30;5.40;;;0.80;91.30;;;;;;4894740;29;20197;-76
2021/12/09 03:06:37;;;;;;;15.55;5.15;;;0.80;91.40;;;;;;4887761;29;20055;-76
2021/12/09 03:09:08;;;;;;;17.95;5.85;;;0.80;91.20;;;;;;4907769;29;20176;-76
2021/12/09 03:11:35;;;;;;;9.82;4.93;;;0.80;91.10;;;;;;4887417;29;20095;-77
2021/12/09 03:14:02;;;;;;;10.77;5.30;;;0.90;91.30;;;;;;4892153;29;21063;-76
2021/12/09 03:16:28;;;;;;;11.45;4.40;;;0.90;91.20;;;;;;4893184;29;20044;-76
2021/12/09 03:18:57;;;;;;;13.55;5.50;;;0.80;91.20;;;;;;4886785;29;20069;-76
2021/12/09 03:21:31;;;;;;;12.15;5.35;;;0.80;91.10;;;;;;4890391;29;20068;-76
2021/12/09 03:23:58;;;;;;;13.77;4.80;;;0.80;91.10;;;;;;4886226;29;20098;-76
2021/12/09 03:26:29;;;;;;;9.32;5.10;;;0.80;91.20;;;;;;4888779;29;20056;-76
2021/12/09 03:28:58;;;;;;;16.40;5.50;;;0.80;91.20;;;;;;4858502;29;20068;-76
2021/12/09 03:31:23;;;;;;;15.57;5.60;;;0.80;91.20;;;;;;4874342;29;20048;-76
2021/12/09 03:33:49;;;;;;;18.13;5.60;;;0.80;91.20;;;;;;4875166;29;20051;-76
2021/12/09 03:36:15;;;;;;;9.00;4.63;;;0.80;91.30;;;;;;4873964;29;20535;-76
2021/12/09 03:38:42;;;;;;;15.05;5.80;;;0.80;91.20;;;;;;4875476;29;20127;-76
2021/12/09 03:41:07;;;;;;;20.95;5.82;;;0.80;91.20;;;;;;4858382;29;20373;-76
2021/12/09 03:43:34;;;;;;;11.20;5.70;;;0.80;91.30;;;;;;4876029;29;20059;-76
2021/12/09 03:46:00;;;;;;;14.82;6.10;;;0.90;91.40;;;;;;4859118;29;20049;-76
2021/12/09 03:48:29;;;;;;;12.95;5.55;;;0.90;91.30;;;;;;4874797;29;20404;-75
2021/12/09 03:50:56;;;;;;;21.25;6.70;;;0.90;91.40;;;;;;4875154;29;20056;-76
2021/12/09 03:53:22;;;;;;;17.73;6.55;;;0.90;91.30;;;;;;4874383;29;20060;-75
2021/12/09 03:55:50;;;;;;;17.73;5.65;;;0.80;91.30;;;;;;4875415;29;20083;-75
2021/12/09 03:58:17;;;;;;;16.58;5.72;;;0.80;91.30;;;;;;4874046;29;20064;-76
2021/12/09 04:00:44;;;;;;;20.13;6.13;;;0.90;91.40;;;;;;4874693;29;20108;-75
2021/12/09 04:03:10;;;;;;;23.42;6.22;;;0.80;91.30;;;;;;4874433;29;20061;-75
2021/12/09 04:05:37;;;;;;;14.82;6.03;;;0.80;91.40;;;;;;4874438;29;20528;-75
2021/12/09 04:08:04;;;;;;;14.07;6.72;;;0.80;91.30;;;;;;4875309;29;20484;-75
2021/12/09 04:10:31;;;;;;;14.90;5.72;;;0.80;91.20;;;;;;4886256;29;20040;-75
2021/12/09 04:12:58;;;;;;;14.75;6.18;;;0.80;91.20;;;;;;4897447;29;20118;-75
2021/12/09 04:15:24;;;;;;;12.75;6.00;;;0.90;91.40;;;;;;4877502;29;20471;-75
2021/12/09 04:17:50;;;;;;;20.52;5.53;;;0.80;91.30;;;;;;4877861;29;20051;-75
2021/12/09 04:20:16;;;;;;;17.65;6.55;;;0.80;91.30;;;;;;4906612;29;20044;-75
2021/12/09 04:22:48;;;;;;;15.95;5.90;;;0.90;91.30;;;;;;4893946;29;20131;-75
2021/12/09 04:25:19;;;;;;;15.25;6.25;;;0.90;91.40;;;;;;4882840;29;20056;-75
2021/12/09 04:27:46;;;;;;;12.00;5.18;;;0.90;91.30;;;;;;4891835;29;20090;-75
2021/12/09 04:30:15;;;;;;;18.90;6.93;;;0.90;91.30;;;;;;4902464;29;20276;-75
2021/12/09 04:32:42;;;;;;;15.57;6.10;;;1.00;91.30;;;;;;4885975;29;20152;-75
2021/12/09 04:35:10;;;;;;;16.80;7.30;;;1.00;91.20;;;;;;4865222;29;20415;-75
2021/12/09 04:37:36;;;;;;;16.02;5.90;;;1.00;91.10;;;;;;4882581;29;20487;-75
2021/12/09 04:40:04;;;;;;;16.20;6.65;;;0.90;91.10;;;;;;4891082;29;20514;-75
2021/12/09 04:42:30;;;;;;;9.68;5.38;;;0.90;91.10;;;;;;4893733;29;20048;-75
2021/12/09 04:44:56;;;;;;;15.00;5.85;;;0.90;91.20;;;;;;4876769;29;20048;-75
2021/12/09 04:47:24;;;;;;;16.95;5.95;;;0.90;91.20;;;;;;4887832;29;20040;-75
2021/12/09 04:49:49;;;;;;;22.33;6.30;;;1.00;91.20;;;;;;4886948;29;20128;-75
2021/12/09 04:52:15;;;;;;;12.82;6.78;;;1.00;91.20;;;;;;4893883;29;20487;-75
2021/12/09 04:54:41;;;;;;;10.20;6.20;;;1.00;91.20;;;;;;4892729;29;20495;-75
2021/12/09 04:57:12;;;;;;;20.23;6.05;;;1.00;91.10;;;;;;4880337;29;20397;-75
2021/12/09 04:59:39;;;;;;;15.32;5.63;;;1.00;91.20;;;;;;4866426;29;20052;-74
2021/12/09 05:02:15;;;;;;;20.13;7.47;;;1.00;91.20;;;;;;4888650;29;20088;-75
2021/12/09 05:04:41;;;;;;;20.88;7.10;;;0.90;91.10;;;;;;4885263;29;20048;-75
2021/12/09 05:07:07;;;;;;;16.35;7.40;;;0.90;91.10;;;;;;4875793;29;20067;-75
2021/12/09 05:09:38;;;;;;;16.92;6.20;;;0.90;91.20;;;;;;4886060;29;20408;-75
2021/12/09 05:12:05;;;;;;;13.88;7.43;;;0.90;91.60;;;;;;4877038;29;20509;-75
2021/12/09 05:14:32;;;;;;;19.90;8.27;;;0.80;91.20;;;;;;4881637;29;20048;-75
2021/12/09 05:17:00;;;;;;;19.52;8.10;;;0.80;91.30;;;;;;4893094;29;20063;-75
2021/12/09 05:19:26;;;;;;;13.15;5.78;;;0.80;91.30;;;;;;4890542;29;20095;-75
2021/12/09 05:21:54;;;;;;;18.85;7.35;;;0.80;91.70;;;;;;4889870;29;20080;-75
2021/12/09 05:24:20;;;;;;;23.13;7.07;;;0.80;91.30;;;;;;4859204;29;20056;-75
2021/12/09 05:26:51;;;;;;;16.67;7.35;;;0.80;91.80;;;;;;4893923;29;20348;-75
2021/12/09 05:29:18;;;;;;;21.83;8.10;;;0.80;91.30;;;;;;4877170;29;20059;-75
2021/12/09 05:34:30;;;;;;;21.98;8.88;;;0.80;91.40;;;;;;4888472;29;20103;-75
2021/12/09 05:36:56;;;;;;;19.25;8.02;;;0.80;91.50;;;;;;4894426;29;20063;-74
2021/12/09 05:39:22;;;;;;;15.63;6.95;;;0.80;91.40;;;;;;4897281;29;20584;-74
2021/12/09 05:41:49;;;;;;;19.40;7.35;;;0.80;91.30;;;;;;4887759;29;20075;-75
2021/12/09 05:44:15;;;;;;;15.00;7.38;;;0.70;91.30;;;;;;4892057;29;20495;-74
2021/12/09 05:46:45;;;;;;;13.93;6.88;;;0.70;91.30;;;;;;4882635;29;20477;-74
2021/12/09 05:49:12;;;;;;;17.65;7.50;;;0.60;91.30;;;;;;4880484;29;20392;-74
2021/12/09 05:51:39;;;;;;;23.92;7.85;;;0.60;91.40;;;;;;4892203;29;20396;-75
2021/12/09 05:54:05;;;;;;;14.73;7.47;;;0.60;91.40;;;;;;4893297;29;20051;-74
2021/12/09 05:56:31;;;;;;;18.85;7.32;;;0.60;91.50;;;;;;4891229;29;20098;-75
2021/12/09 05:58:57;;;;;;;17.05;8.45;;;0.60;91.60;;;;;;4886937;29;20044;-74
2021/12/09 06:01:23;;;;;;;16.63;7.25;;;0.60;91.60;;;;;;4888255;29;20499;-74
2021/12/09 06:03:49;;;;;;;23.17;7.85;;;0.60;91.80;;;;;;4884734;29;20049;-74
2021/12/09 06:06:15;;;;;;;20.45;7.15;;;0.70;91.80;;;;;;4886802;29;20064;-74
2021/12/09 06:08:42;;;;;;;14.10;7.85;;;0.80;91.80;;;;;;4890668;29;20048;-75
2021/12/09 06:11:10;;;;;;;25.48;8.02;;;0.70;91.80;;;;;;4853479;29;20052;-74
2021/12/09 06:13:37;;;;;;;19.73;7.63;;;0.80;91.80;;;;;;4896138;29;20048;-74
2021/12/09 06:16:05;;;;;;;21.13;7.38;;;0.80;91.70;;;;;;4894257;29;20060;-74
2021/12/09 06:18:31;;;;;;;20.20;7.82;;;0.80;91.70;;;;;;4896485;29;20056;-74
2021/12/09 06:20:57;;;;;;;22.95;7.97;;;0.80;91.60;;;;;;4874267;29;20036;-74
2021/12/09 06:23:23;;;;;;;20.10;8.27;;;0.70;91.50;;;;;;4896412;29;20125;-74
2021/12/09 06:25:52;;;;;;;21.40;7.78;;;0.70;91.50;;;;;;4895517;29;20597;-74
2021/12/09 06:28:18;;;;;;;21.35;8.02;;;0.70;91.50;;;;;;4879280;29;20467;-74
2021/12/09 06:30:45;;;;;;;18.05;7.28;;;0.60;91.50;;;;;;4899326;29;20407;-74
2021/12/09 06:33:11;;;;;;;14.90;7.82;;;0.60;91.60;;;;;;4891549;29;20462;-74
2021/12/09 06:35:38;;;;;;;18.50;8.10;;;0.60;91.70;;;;;;4895962;29;20051;-74
2021/12/09 06:38:05;;;;;;;16.95;6.78;;;0.60;91.60;;;;;;4887450;29;20507;-74
2021/12/09 06:40:31;;;;;;;21.17;7.63;;;0.60;91.60;;;;;;4880322;29;20059;-74
2021/12/09 06:42:57;;;;;;;18.17;7.47;;;0.50;91.50;;;;;;4895204;29;20133;-74
2021/12/09 06:45:24;;;;;;;28.42;7.72;;;0.50;91.40;;;;;;4895211;29;20101;-74
2021/12/09 06:47:50;;;;;;;13.63;5.82;;;0.50;91.40;;;;;;4891426;29;20049;-75
2021/12/09 06:50:19;;;;;;;20.27;7.93;;;0.40;91.50;;;;;;4876747;29;20053;-75
2021/12/09 06:52:45;;;;;;;17.50;8.38;;;0.40;91.60;;;;;;4879433;29;20499;-74
2021/12/09 06:55:13;;;;;;;26.27;9.65;;;0.40;91.70;;;;;;4885378;29;20052;-74
2021/12/09 06:57:39;;;;;;;13.50;5.97;;;0.40;91.70;;;;;;4891241;29;20131;-74
2021/12/09 07:00:08;;;;;;;22.42;7.78;;;0.40;91.70;;;;;;4889252;29;20098;-75
2021/12/09 07:02:35;;;;;;;20.55;6.45;;;0.50;91.80;;;;;;4893299;29;20625;-74
2021/12/09 07:05:03;;;;;;;26.88;7.93;;;0.50;91.80;;;;;;4891029;29;20051;-74
2021/12/09 07:07:29;;;;;;;17.90;7.45;;;0.50;91.70;;;;;;4875229;29;20056;-74
2021/12/09 07:09:55;;;;;;;16.20;8.23;;;0.50;91.70;;;;;;4875934;29;20052;-75
2021/12/09 07:12:21;;;;;;;16.55;7.57;;;0.50;91.70;;;;;;4887958;29;20842;-74
2021/12/09 07:14:47;;;;;;;16.55;7.13;;;0.50;91.80;;;;;;4879860;29;20131;-74
2021/12/09 07:17:13;;;;;;;8.50;4.63;;;0.50;91.80;;;;;;4893705;29;20159;-74
2021/12/09 07:19:39;;;;;;;14.18;6.63;;;0.50;91.80;;;;;;4893911;29;20365;-74
2021/12/09 07:22:05;;;;;;;16.73;7.20;;;0.50;91.80;;;;;;4878651;29;20044;-74
2021/12/09 07:24:31;;;;;;;17.58;7.57;;;0.50;91.80;;;;;;4878105;29;20067;-74
2021/12/09 07:26:57;;;;;;;17.05;7.57;;;0.50;91.80;;;;;;4895208;29;20051;-74
2021/12/09 07:29:25;;;;;;;15.85;7.38;;;0.60;91.80;;;;;;4893064;29;20312;-74
2021/12/09 07:31:51;;;;;;;14.13;5.85;;;0.60;91.80;;;;;;4876201;29;20053;-75
2021/12/09 07:34:17;;;;;;;18.38;8.30;;;0.50;91.80;;;;;;4862878;29;20044;-74
2021/12/09 07:36:43;;;;;;;21.40;7.97;;;0.60;91.80;;;;;;4860592;29;20060;-74
2021/12/09 07:39:10;;;;;;;17.42;7.88;;;0.60;91.80;;;;;;4884536;29;20583;-74
2021/12/09 07:41:36;;;;;;;24.98;9.32;;;0.60;91.80;;;;;;4878520;29;20048;-74
2021/12/09 07:44:02;;;;;;;21.08;7.75;;;0.50;91.80;;;;;;4886119;29;20127;-74
2021/12/09 07:46:34;;;;;;;17.00;8.05;;;0.50;91.70;;;;;;4869239;29;20048;-74
2021/12/09 07:48:59;;;;;;;21.10;7.90;;;0.50;91.80;;;;;;4887970;29;20063;-74
2021/12/09 07:51:25;;;;;;;17.88;8.10;;;0.50;91.80;;;;;;4889135;29;20503;-74
2021/12/09 07:53:51;;;;;;;24.35;8.30;;;0.40;91.80;;;;;;4904730;29;20048;-74
2021/12/09 07:56:17;;;;;;;17.08;8.93;;;0.40;91.80;;;;;;4889380;29;20048;-74
2021/12/09 07:58:43;;;;;;;14.52;7.43;;;0.40;91.80;;;;;;4898884;29;20040;-75
2021/12/09 08:01:10;;;;;;;21.98;7.97;;;0.40;91.80;;;;;;4859724;29;20056;-74
2021/12/09 08:03:37;;;;;;;19.80;7.65;;;0.40;91.90;;;;;;4899684;29;20491;-74
2021/12/09 08:06:03;;;;;;;20.90;6.95;;;0.40;92.00;;;;;;4891307;29;20727;-74
2021/12/09 08:08:29;;;;;;;30.92;8.60;;;0.40;92.00;;;;;;4904682;29;20508;-74
2021/12/09 08:10:55;;;;;;;24.02;8.73;;;0.50;92.00;;;;;;4844102;29;20209;-74
2021/12/09 08:13:23;;;;;;;25.65;8.57;;;0.40;92.00;;;;;;4880596;29;20036;-74
2021/12/09 08:15:50;;;;;;;19.05;8.77;;;0.40;92.00;;;;;;4880330;29;20059;-74
2021/12/09 08:20:52;;;;;;;15.85;6.47;;;0.30;92.00;;;;;;4890858;29;20048;-74
2021/12/09 08:23:19;;;;;;;15.50;7.55;;;0.30;92.00;;;;;;4883973;29;20635;-75
2021/12/09 08:25:45;;;;;;;19.55;8.07;;;0.30;92.00;;;;;;4858456;29;20044;-74
2021/12/09 08:28:12;;;;;;;26.77;9.13;;;0.30;92.00;;;;;;4875244;29;20055;-74
2021/12/09 08:30:38;;;;;;;27.67;8.75;;;0.40;92.00;;;;;;4882757;29;20056;-75
2021/12/09 08:33:06;;;;;;;22.13;8.75;;;0.40;92.10;;;;;;4859025;29;20055;-76
2021/12/09 08:35:33;;;;;;;24.80;9.20;;;0.40;92.10;;;;;;4875758;29;20036;-75
2021/12/09 08:38:00;;;;;;;23.88;8.32;;;0.50;92.50;;;;;;4873871;29;20423;-75
2021/12/09 08:40:29;;;;;;;25.83;9.25;;;0.40;92.20;;;;;;4891638;29;20123;-75
2021/12/09 08:42:55;;;;;;;32.25;10.00;;;0.50;92.20;;;;;;4878309;29;20191;-75
2021/12/09 08:45:21;;;;;;;24.45;8.95;;;0.50;92.20;;;;;;4890937;29;20044;-75
2021/12/09 08:47:47;;;;;;;24.25;9.05;;;0.50;92.20;;;;;;4890254;29;20127;-75
2021/12/09 08:50:19;;;;;;;23.65;9.60;;;0.50;92.30;;;;;;4891569;29;20103;-75
2021/12/09 08:52:47;;;;;;;18.00;8.85;;;0.50;92.30;;;;;;4886939;29;20059;-75
2021/12/09 08:55:13;;;;;;;21.02;8.02;;;0.60;92.30;;;;;;4877326;29;20203;-75
2021/12/09 08:57:39;;;;;;;22.13;8.90;;;0.70;92.30;;;;;;4881195;29;20048;-75
2021/12/09 09:00:12;;;;;;;20.65;8.85;;;0.60;92.30;;;;;;4834725;29;20519;-75
2021/12/09 09:02:42;;;;;;;26.10;7.70;;;0.70;92.30;;;;;;4870362;29;20048;-75
2021/12/09 09:05:11;;;;;;;23.90;8.20;;;0.80;92.30;;;;;;4900800;29;20492;-75
2021/12/09 09:07:47;;;;;;;23.83;9.00;;;0.80;92.30;;;;;;4887210;29;20638;-75
2021/12/09 09:10:16;;;;;;;13.45;6.85;;;0.90;92.30;;;;;;4872177;29;20052;-75
2021/12/09 09:12:43;;;;;;;10.77;6.75;;;1.00;92.30;;;;;;4897034;29;20853;-75
2021/12/09 09:15:12;;;;;;;25.42;8.82;;;1.00;92.20;;;;;;4891337;29;20530;-75
2021/12/09 09:17:38;;;;;;;26.58;9.75;;;1.10;92.10;;;;;;4861101;29;20268;-75
2021/12/09 09:20:07;;;;;;;22.00;8.25;;;1.10;92.00;;;;;;4884636;29;20095;-74
2021/12/09 09:22:35;;;;;;;24.08;9.88;;;1.10;92.00;;;;;;4887809;29;20045;-74
2021/12/09 09:25:00;;;;;;;25.00;8.68;;;1.20;91.90;;;;;;4881208;29;20033;-75
2021/12/09 09:27:26;;;;;;;21.30;9.40;;;1.20;91.80;;;;;;4867616;29;20045;-75
2021/12/09 09:29:52;;;;;;;24.27;9.18;;;1.30;91.80;;;;;;4861110;29;20044;-75
2021/12/09 09:32:18;;;;;;;21.20;8.98;;;1.30;91.70;;;;;;4875878;29;20049;-75
2021/12/09 09:34:43;;;;;;;24.17;9.30;;;1.40;91.60;;;;;;4874987;29;20143;-75
2021/12/09 09:37:10;;;;;;;29.95;10.75;;;1.30;91.50;;;;;;4886033;29;20037;-75
2021/12/09 09:39:41;;;;;;;29.95;10.80;;;1.40;91.50;;;;;;4901595;29;20040;-74
2021/12/09 09:44:54;;;;;;;23.65;9.63;;;1.50;91.50;;;;;;4888338;29;20555;-75
2021/12/09 09:47:24;;;;;;;26.92;10.38;;;1.50;91.40;;;;;;4904336;29;20439;-75
2021/12/09 09:49:51;;;;;;;34.10;10.00;;;1.60;91.40;;;;;;4908050;29;20051;-74
2021/12/09 09:52:17;;;;;;;21.80;10.07;;;1.60;91.30;;;;;;4873226;29;20440;-74
2021/12/09 09:54:43;;;;;;;33.70;11.55;;;1.70;91.30;;;;;;4876447;29;20927;-75
2021/12/09 09:57:10;;;;;;;29.58;10.48;;;1.70;91.30;;;;;;4860232;29;20099;-74
2021/12/09 09:59:37;;;;;;;22.48;9.88;;;1.80;91.30;;;;;;4875532;29;20055;-75
2021/12/09 10:02:03;;;;;;;26.83;9.63;;;1.80;91.30;;;;;;4885403;29;20539;-74
2021/12/09 10:04:37;;;;;;;36.72;9.88;;;1.80;91.10;;;;;;4893805;29;20039;-74
2021/12/09 10:07:05;;;;;;;19.90;5.90;;;2.00;91.10;;;;;;4886379;29;20057;-74
2021/12/09 10:09:32;;;;;;;31.48;9.82;;;1.90;90.90;;;;;;4887697;29;20443;-74
2021/12/09 10:12:00;;;;;;;18.40;8.13;;;2.00;90.90;;;;;;4894252;29;20053;-75
2021/12/09 10:14:35;;;;;;;25.85;9.82;;;2.10;90.90;;;;;;4887100;29;20484;-75
2021/12/09 10:17:18;;;;;;;21.83;9.05;;;2.10;90.70;;;;;;4875852;29;20567;-74
2021/12/09 10:19:50;;;;;;;23.88;8.88;;;2.10;90.60;;;;;;4880433;29;20128;-75
2021/12/09 10:22:19;;;;;;;17.90;8.02;;;2.20;90.60;;;;;;4871038;29;20514;-75
2021/12/09 10:24:47;;;;;;;22.75;9.55;;;2.20;90.40;;;;;;4875765;29;20048;-75
2021/12/09 10:27:26;;;;;;;25.67;9.52;;;2.30;90.30;;;;;;4875198;29;20055;-75
2021/12/09 10:29:58;;;;;;;19.88;7.30;;;2.30;90.30;;;;;;4875375;29;20052;-75
2021/12/09 10:32:29;;;;;;;22.60;8.57;;;2.30;90.20;;;;;;4881361;29;20472;-75
2021/12/09 10:35:03;;;;;;;22.58;8.57;;;2.40;90.20;;;;;;4887185;29;20079;-75
2021/12/09 10:37:33;;;;;;;26.83;9.93;;;2.40;90.10;;;;;;4868200;29;20404;-75
2021/12/09 10:40:30;;;;;;;23.27;8.75;;;2.50;90.10;;;;;;4883433;29;20055;-75
2021/12/09 10:43:03;;;;;;;25.45;11.02;;;2.50;90.00;;;;;;4885489;29;20048;-76
2021/12/09 10:45:37;;;;;;;25.70;9.13;;;2.50;90.00;;;;;;4883975;29;20055;-75
2021/12/09 10:51:03;;;;;;;24.67;9.98;;;2.60;90.00;;;;;;4884997;29;20079;-76
2021/12/09 10:53:36;;;;;;;29.05;11.52;;;2.70;89.60;;;;;;4853963;29;20041;-76
2021/12/09 10:56:10;;;;;;;32.42;10.38;;;2.70;89.60;;;;;;4885610;29;20400;-75
2021/12/09 10:58:43;;;;;;;20.63;7.45;;;2.80;89.30;;;;;;4885018;29;20052;-76
2021/12/09 11:01:14;;;;;;;23.58;7.78;;;2.80;89.00;;;;;;4877303;29;20049;-76
2021/12/09 11:03:51;;;;;;;20.70;8.80;;;2.90;88.80;;;;;;4867168;29;20103;-76
2021/12/09 11:06:32;;;;;;;28.67;7.68;;;2.90;88.50;;;;;;4867110;29;20061;-77
2021/12/09 11:09:00;;;;;;;26.70;8.38;;;2.90;88.30;;;;;;4867806;29;21142;-76
2021/12/09 11:11:30;;;;;;;20.35;7.45;;;2.80;88.40;;;;;;4870927;29;20445;-76
2021/12/09 11:14:16;;;;;;;13.25;7.15;;;2.80;88.20;;;;;;4858737;29;20045;-77
2021/12/09 11:17:00;;;;;;;25.10;7.80;;;2.70;88.30;;;;;;4888610;29;20067;-77
2021/12/09 11:21:59;;;;;;;14.75;7.60;;;2.80;88.80;;;;;;4873984;29;20055;-77
2021/12/09 11:24:35;;;;;;;14.57;6.47;;;2.80;88.80;;;;;;4870098;29;20048;-77
2021/12/09 11:27:03;;;;;;;25.35;8.52;;;2.90;89.00;;;;;;4873501;29;20111;-77
2021/12/09 11:29:37;;;;;;;13.40;5.47;;;2.90;89.10;;;;;;4883621;29;20048;-77
2021/12/09 11:32:07;;;;;;;20.27;7.65;;;3.00;89.10;;;;;;4886274;29;20098;-78
2021/12/09 11:34:48;;;;;;;16.40;7.28;;;3.00;89.00;;;;;;4902446;29;20423;-78
2021/12/09 11:39:58;;;;;;;16.88;5.43;;;3.10;89.00;;;;;;4898980;29;20473;-78
2021/12/09 11:42:36;;;;;;;18.55;6.68;;;3.10;89.00;;;;;;4891611;29;20100;-78
2021/12/09 11:45:03;;;;;;;17.05;7.32;;;3.10;88.80;;;;;;4888545;29;20048;-78
2021/12/09 11:47:29;;;;;;;16.65;6.57;;;3.10;88.70;;;;;;4887073;29;20056;-79
2021/12/09 11:49:55;;;;;;;18.98;6.53;;;3.10;88.60;;;;;;4876884;29;20055;-79
2021/12/09 11:52:22;;;;;;;19.02;7.55;;;3.10;88.70;;;;;;4878205;29;20053;-78
2021/12/09 11:54:57;;;;;;;18.85;7.47;;;3.20;88.80;;;;;;4881919;29;20044;-79
2021/12/09 11:57:46;;;;;;;22.17;7.50;;;3.20;88.70;;;;;;4871789;29;20567;-79
2021/12/09 12:12:25;;;;;;;14.13;5.45;;;3.20;88.10;;;;;;4884040;29;20052;-79
2021/12/09 12:14:56;;;;;;;21.85;6.78;;;3.20;88.10;;;;;;4867904;29;20551;-79
2021/12/09 12:26:12;;;;;;;15.10;7.00;;;3.20;88.60;;;;;;4873037;29;20048;-80
2021/12/09 12:35:11;;;;;;;16.40;5.57;;;3.10;88.80;;;;;;4903525;29;19927;-80
2021/12/09 12:37:56;;;;;;;15.38;6.90;;;3.10;88.90;;;;;;4907754;29;21015;-80
2021/12/09 12:40:37;;;;;;;12.80;6.82;;;3.10;89.10;;;;;;4893765;29;20056;-79
2021/12/09 12:43:10;;;;;;;13.45;6.13;;;3.10;89.20;;;;;;4897967;29;20047;-80
2021/12/09 12:51:18;;;;;;;;;;;3.10;89.40;;;;;;4894431;29;20060;-80
2021/12/09 12:53:47;;;;;;;20.30;7.55;;;3.10;89.30;;;;;;4891248;29;19931;-80
2021/12/09 12:56:14;;;;;;;14.75;6.88;;;3.10;89.70;;;;;;4893680;29;20451;-79
2021/12/09 12:59:14;;;;;;;18.05;7.80;;;3.10;89.70;;;;;;4893497;29;20040;-79
2021/12/09 13:02:01;;;;;;;15.32;8.02;;;3.00;89.70;;;;;;4908641;29;20052;-80
2021/12/09 13:13:28;;;;;;;22.23;8.05;;;3.00;90.20;;;;;;4900699;29;20056;-80
2021/12/09 13:16:14;;;;;;;19.33;5.30;;;3.00;90.30;;;;;;4892568;29;20061;-79
2021/12/09 13:21:43;;;;;;;32.60;9.50;;;3.10;90.40;;;;;;4903746;29;20139;-79
2021/12/09 13:24:25;;;;;;;32.20;10.45;;;3.10;90.40;;;;;;4876046;29;20051;-80
2021/12/09 13:30:06;;;;;;;23.27;9.57;;;3.10;90.40;;;;;;4893884;29;20083;-79
2021/12/09 13:32:55;;;;;;;27.10;9.20;;;3.10;90.40;;;;;;4892093;29;20058;-80
2021/12/09 13:35:36;;;;;;;20.98;9.35;;;3.10;90.30;;;;;;4877920;29;20044;-79
2021/12/09 13:55:29;;;;;;;22.73;9.63;;;3.20;90.50;;;;;;4905345;29;20310;-79
2021/12/09 13:58:07;;;;;;;29.10;8.93;;;3.20;90.50;;;;;;4913398;29;20052;-79
2021/12/09 14:00:34;;;;;;;28.90;8.38;;;3.20;90.50;;;;;;4896491;29;20048;-79
2021/12/09 14:03:00;;;;;;;15.75;7.10;;;3.20;90.60;;;;;;4906512;29;20089;-79
2021/12/09 14:05:36;;;;;;;21.95;7.40;;;3.20;90.50;;;;;;4880508;29;20439;-79
2021/12/09 14:08:06;;;;;;;26.88;7.40;;;3.20;90.50;;;;;;4898747;29;20103;-79
2021/12/09 14:10:35;;;;;;;25.63;7.78;;;3.20;90.50;;;;;;4867799;29;20044;-79
2021/12/09 14:13:07;;;;;;;22.48;7.68;;;3.20;90.50;;;;;;4866671;29;20040;-79
2021/12/09 14:15:41;;;;;;;16.60;6.97;;;3.30;90.50;;;;;;4865623;29;20040;-79
2021/12/09 14:18:19;;;;;;;20.63;7.97;;;3.20;90.40;;;;;;4901719;29;20060;-79